createdAt,value
2018-05-17T00:02:06.968Z,14.46
2018-05-17T00:04:34.422Z,14.39
2018-05-17T00:07:01.839Z,14.40
2018-05-17T00:09:30.563Z,14.51
2018-05-17T00:11:57.993Z,14.52
2018-05-17T00:14:25.514Z,14.61
2018-05-17T00:16:52.919Z,14.64
2018-05-17T00:19:20.353Z,14.69
2018-05-17T00:21:47.770Z,14.69
2018-05-17T00:24:15.338Z,14.65
2018-05-17T00:26:42.819Z,14.61
2018-05-17T00:29:10.293Z,14.54
2018-05-17T00:31:37.757Z,14.53
2018-05-17T00:34:05.205Z,14.39
2018-05-17T00:36:32.640Z,14.32
2018-05-17T00:39:00.036Z,14.36
2018-05-17T00:41:27.475Z,14.43
2018-05-17T00:43:54.901Z,14.44
2018-05-17T00:46:22.522Z,14.40
2018-05-17T00:48:49.969Z,14.38
2018-05-17T00:51:17.496Z,14.29
2018-05-17T00:53:44.939Z,14.30
2018-05-17T00:56:12.366Z,14.19
2018-05-17T00:58:39.845Z,14.04
2018-05-17T01:01:07.249Z,14.01
2018-05-17T01:03:38.412Z,14.02
2018-05-17T01:06:05.805Z,13.88
2018-05-17T01:08:33.316Z,13.73
2018-05-17T01:11:00.772Z,13.72
2018-05-17T01:13:28.208Z,13.78
2018-05-17T01:15:55.713Z,13.79
2018-05-17T01:18:23.803Z,13.79
2018-05-17T01:20:51.261Z,13.81
2018-05-17T01:23:18.735Z,13.84
2018-05-17T01:25:46.148Z,13.84
2018-05-17T01:28:13.573Z,13.83
2018-05-17T01:30:41.006Z,13.80
2018-05-17T01:33:08.444Z,13.81
2018-05-17T01:35:35.865Z,13.84
2018-05-17T01:38:15.030Z,13.88
2018-05-17T01:40:42.526Z,13.84
2018-05-17T01:43:10.284Z,13.82
2018-05-17T01:45:37.683Z,13.82
2018-05-17T01:48:05.122Z,13.84
2018-05-17T01:50:32.559Z,13.81
2018-05-17T01:53:00.014Z,13.77
2018-05-17T01:55:27.494Z,13.73
2018-05-17T01:57:54.996Z,13.64
2018-05-17T02:00:23.228Z,13.55
2018-05-17T02:02:50.723Z,13.53
2018-05-17T02:05:18.152Z,13.57
2018-05-17T02:07:45.670Z,13.59
2018-05-17T02:10:13.227Z,13.59
2018-05-17T02:12:40.671Z,13.58
2018-05-17T02:15:08.110Z,13.59
2018-05-17T02:17:36.508Z,13.60
2018-05-17T02:20:04.058Z,13.52
2018-05-17T02:22:32.230Z,13.47
2018-05-17T02:24:59.658Z,13.45
2018-05-17T02:27:27.130Z,13.41
2018-05-17T02:29:55.526Z,13.36
2018-05-17T02:32:22.939Z,13.28
2018-05-17T02:34:50.361Z,13.23
2018-05-17T02:37:17.837Z,13.18
2018-05-17T02:39:45.507Z,13.09
2018-05-17T02:42:12.969Z,13.04
2018-05-17T02:44:40.414Z,12.97
2018-05-17T02:47:07.828Z,12.97
2018-05-17T02:49:43.846Z,12.98
2018-05-17T02:52:11.270Z,12.89
2018-05-17T02:54:38.722Z,12.82
2018-05-17T02:57:06.388Z,12.79
2018-05-17T02:59:33.823Z,12.72
2018-05-17T03:02:01.258Z,12.71
2018-05-17T03:04:28.698Z,12.70
2018-05-17T03:06:56.168Z,12.70
2018-05-17T03:09:23.602Z,12.64
2018-05-17T03:11:51.010Z,12.63
2018-05-17T03:14:18.475Z,12.57
2018-05-17T03:16:47.106Z,12.48
2018-05-17T03:19:14.506Z,12.44
2018-05-17T03:21:41.960Z,12.41
2018-05-17T03:24:09.535Z,12.37
2018-05-17T03:26:36.995Z,12.37
2018-05-17T03:29:04.477Z,12.35
2018-05-17T03:31:31.916Z,12.29
2018-05-17T03:33:59.331Z,12.28
2018-05-17T03:36:26.823Z,12.21
2018-05-17T03:38:54.302Z,12.11
2018-05-17T03:41:21.764Z,12.11
2018-05-17T03:43:49.281Z,12.09
2018-05-17T03:46:16.829Z,12.12
2018-05-17T03:48:44.427Z,12.16
2018-05-17T03:51:11.924Z,12.11
2018-05-17T03:53:39.391Z,12.08
2018-05-17T03:56:06.863Z,12.12
2018-05-17T03:58:34.291Z,12.19
2018-05-17T04:01:13.454Z,12.24
2018-05-17T04:03:52.687Z,12.25
2018-05-17T04:06:31.984Z,12.21
2018-05-17T04:08:59.487Z,12.18
2018-05-17T04:11:26.952Z,12.23
2018-05-17T04:13:54.378Z,12.30
2018-05-17T04:16:24.487Z,12.40
2018-05-17T04:18:51.969Z,12.45
2018-05-17T04:21:19.505Z,12.53
2018-05-17T04:23:46.920Z,12.56
2018-05-17T04:26:14.327Z,12.57
2018-05-17T04:28:41.723Z,12.53
2018-05-17T04:31:17.936Z,12.53
2018-05-17T04:33:45.389Z,12.53
2018-05-17T04:36:12.881Z,12.55
2018-05-17T04:38:40.380Z,12.64
2018-05-17T04:41:07.784Z,12.66
2018-05-17T04:43:35.188Z,12.67
2018-05-17T04:46:02.675Z,12.66
2018-05-17T04:48:30.115Z,12.67
2018-05-17T04:50:57.544Z,12.82
2018-05-17T04:53:26.228Z,12.96
2018-05-17T04:55:53.889Z,12.94
2018-05-17T04:58:21.299Z,12.95
2018-05-17T05:00:48.846Z,13.09
2018-05-17T05:03:17.207Z,13.20
2018-05-17T05:05:45.875Z,13.30
2018-05-17T05:08:13.314Z,13.33
2018-05-17T05:10:40.765Z,13.35
2018-05-17T05:13:08.161Z,13.46
2018-05-17T05:15:35.558Z,13.58
2018-05-17T05:18:03.432Z,13.64
2018-05-17T05:20:30.844Z,13.71
2018-05-17T05:22:58.281Z,13.85
2018-05-17T05:25:25.743Z,14.09
2018-05-17T05:27:53.949Z,14.23
2018-05-17T05:30:21.337Z,14.31
2018-05-17T05:32:48.752Z,14.37
2018-05-17T05:35:16.827Z,14.56
2018-05-17T05:37:44.266Z,14.71
2018-05-17T05:40:11.791Z,14.54
2018-05-17T05:42:40.041Z,14.30
2018-05-17T05:45:07.475Z,14.19
2018-05-17T05:47:34.998Z,14.48
2018-05-17T05:50:02.435Z,14.66
2018-05-17T05:52:29.838Z,14.39
2018-05-17T05:54:57.297Z,14.41
2018-05-17T05:57:24.732Z,14.53
2018-05-17T05:59:56.073Z,14.65
2018-05-17T06:02:23.576Z,14.49
2018-05-17T06:04:51.764Z,14.51
2018-05-17T06:07:19.274Z,14.69
2018-05-17T06:09:46.749Z,14.69
2018-05-17T06:12:14.164Z,14.57
2018-05-17T06:14:41.594Z,14.57
2018-05-17T06:17:09.048Z,14.64
2018-05-17T06:19:36.495Z,14.61
2018-05-17T06:22:03.909Z,14.76
2018-05-17T06:24:31.356Z,14.97
2018-05-17T06:26:58.800Z,15.24
2018-05-17T06:29:26.193Z,15.40
2018-05-17T06:31:53.627Z,15.24
2018-05-17T06:34:21.024Z,15.10
2018-05-17T06:36:48.457Z,15.14
2018-05-17T06:39:15.934Z,14.83
2018-05-17T06:41:43.435Z,14.66
2018-05-17T06:44:10.850Z,14.78
2018-05-17T06:46:38.274Z,14.95
2018-05-17T06:49:05.732Z,15.11
2018-05-17T06:51:33.150Z,15.17
2018-05-17T06:54:00.587Z,15.23
2018-05-17T06:56:28.081Z,15.31
2018-05-17T06:58:55.541Z,15.49
2018-05-17T07:01:22.991Z,15.74
2018-05-17T07:03:50.435Z,16.04
2018-05-17T07:06:19.144Z,16.22
2018-05-17T07:08:46.636Z,16.30
2018-05-17T07:11:14.186Z,16.85
2018-05-17T07:13:41.660Z,17.10
2018-05-17T07:16:09.210Z,17.15
2018-05-17T07:18:37.887Z,17.57
2018-05-17T07:21:05.105Z,17.81
2018-05-17T07:23:32.572Z,17.37
2018-05-17T07:26:00.018Z,17.30
2018-05-17T07:28:27.416Z,17.55
2018-05-17T07:30:54.896Z,17.69
2018-05-17T07:33:26.104Z,17.81
2018-05-17T07:35:54.631Z,17.91
2018-05-17T07:38:22.767Z,17.95
2018-05-17T07:40:50.295Z,18.03
2018-05-17T07:43:17.745Z,18.36
2018-05-17T07:45:46.166Z,18.26
2018-05-17T07:48:13.657Z,18.42
2018-05-17T07:50:41.107Z,19.24
2018-05-17T07:53:11.768Z,19.58
2018-05-17T07:55:39.613Z,19.95
2018-05-17T07:58:07.032Z,20.24
2018-05-17T08:00:34.688Z,20.37
2018-05-17T08:03:02.098Z,20.16
2018-05-17T08:05:32.401Z,20.18
2018-05-17T08:07:59.893Z,20.66
2018-05-17T08:10:27.378Z,20.88
2018-05-17T08:12:54.980Z,20.95
2018-05-17T08:15:22.417Z,20.53
2018-05-17T08:17:49.867Z,20.50
2018-05-17T08:20:17.270Z,20.70
2018-05-17T08:22:44.721Z,20.30
2018-05-17T08:25:12.142Z,19.85
2018-05-17T08:27:39.648Z,20.11
2018-05-17T08:30:07.128Z,20.40
2018-05-17T08:32:35.019Z,20.62
2018-05-17T08:35:02.463Z,20.00
2018-05-17T08:37:29.969Z,19.00
2018-05-17T08:39:57.912Z,19.03
2018-05-17T08:42:25.356Z,18.93
2018-05-17T08:44:52.838Z,19.35
2018-05-17T08:47:20.319Z,19.61
2018-05-17T08:49:47.983Z,19.63
2018-05-17T08:52:15.388Z,19.95
2018-05-17T08:54:42.843Z,20.27
2018-05-17T08:57:10.290Z,20.03
2018-05-17T08:59:38.530Z,20.16
2018-05-17T09:02:06.733Z,20.27
2018-05-17T09:04:34.305Z,20.02
2018-05-17T09:07:01.794Z,19.97
2018-05-17T09:09:29.262Z,20.29
2018-05-17T09:11:56.778Z,20.03
2018-05-17T09:14:24.230Z,19.58
2018-05-17T09:16:51.820Z,19.40
2018-05-17T09:19:19.256Z,19.60
2018-05-17T09:21:46.728Z,19.70
2018-05-17T09:24:14.165Z,19.55
2018-05-17T09:26:41.571Z,19.62
2018-05-17T09:29:09.120Z,19.30
2018-05-17T09:31:37.694Z,19.11
2018-05-17T09:34:05.164Z,19.08
2018-05-17T09:36:33.445Z,19.06
2018-05-17T09:39:01.981Z,19.18
2018-05-17T09:41:29.475Z,19.32
2018-05-17T09:43:57.757Z,19.32
2018-05-17T09:46:25.243Z,19.39
2018-05-17T09:48:52.666Z,19.06
2018-05-17T09:51:20.119Z,19.24
2018-05-17T09:53:47.556Z,19.19
2018-05-17T09:56:15.007Z,19.51
2018-05-17T09:58:42.496Z,20.15
2018-05-17T10:01:09.980Z,20.72
2018-05-17T10:03:37.431Z,20.97
2018-05-17T10:06:04.897Z,21.17
2018-05-17T10:08:32.426Z,21.11
2018-05-17T10:11:00.059Z,20.98
2018-05-17T10:13:29.579Z,20.66
2018-05-17T10:15:57.865Z,21.01
2018-05-17T10:18:25.396Z,21.38
2018-05-17T10:20:53.768Z,21.15
2018-05-17T10:23:21.245Z,21.08
2018-05-17T10:25:48.724Z,21.33
2018-05-17T10:28:16.208Z,21.61
2018-05-17T10:30:43.651Z,22.04
2018-05-17T10:33:11.121Z,21.89
2018-05-17T10:35:39.396Z,21.55
2018-05-17T10:38:06.826Z,21.73
2018-05-17T10:40:37.262Z,21.72
2018-05-17T10:43:05.752Z,21.77
2018-05-17T10:45:33.203Z,22.28
2018-05-17T10:48:01.571Z,22.34
2018-05-17T10:50:29.111Z,22.23
2018-05-17T10:52:56.551Z,22.12
2018-05-17T10:55:24.022Z,21.94
2018-05-17T10:57:51.517Z,22.10
2018-05-17T11:00:19.028Z,22.19
2018-05-17T11:02:46.451Z,22.20
2018-05-17T11:05:13.959Z,22.23
2018-05-17T11:07:41.565Z,22.47
2018-05-17T11:10:09.039Z,22.51
2018-05-17T11:12:36.477Z,22.90
2018-05-17T11:15:04.022Z,23.13
2018-05-17T11:17:31.504Z,23.21
2018-05-17T11:19:58.947Z,23.22
2018-05-17T11:22:26.425Z,23.09
2018-05-17T11:24:53.853Z,22.85
2018-05-17T11:27:21.297Z,22.66
2018-05-17T11:29:49.882Z,22.75
2018-05-17T11:32:17.373Z,23.15
2018-05-17T11:34:45.673Z,22.74
2018-05-17T11:37:13.247Z,22.89
2018-05-17T11:39:40.746Z,23.07
2018-05-17T11:42:08.580Z,23.06
2018-05-17T11:44:36.019Z,23.14
2018-05-17T11:47:03.684Z,23.33
2018-05-17T11:49:34.675Z,23.49
2018-05-17T11:52:06.327Z,23.40
2018-05-17T11:54:33.840Z,23.55
2018-05-17T11:57:01.317Z,23.76
2018-05-17T11:59:28.801Z,23.67
2018-05-17T12:01:56.236Z,23.40
2018-05-17T12:04:23.678Z,23.74
2018-05-17T12:06:51.239Z,23.90
2018-05-17T12:09:18.791Z,24.05
2018-05-17T12:11:46.216Z,24.08
2018-05-17T12:14:13.842Z,24.04
2018-05-17T12:16:41.154Z,23.87
2018-05-17T12:19:09.778Z,23.73
2018-05-17T12:21:37.252Z,23.57
2018-05-17T12:24:07.228Z,23.56
2018-05-17T12:26:34.638Z,23.41
2018-05-17T12:29:02.089Z,23.40
2018-05-17T12:31:29.482Z,23.33
2018-05-17T12:33:56.969Z,23.17
2018-05-17T12:36:24.397Z,23.33
2018-05-17T12:38:51.853Z,23.33
2018-05-17T12:41:19.474Z,23.03
2018-05-17T12:43:46.889Z,22.66
2018-05-17T12:46:14.321Z,22.57
2018-05-17T12:48:41.755Z,22.56
2018-05-17T12:51:09.241Z,22.76
2018-05-17T12:53:36.679Z,22.84
2018-05-17T12:56:05.031Z,22.94
2018-05-17T12:58:34.156Z,23.05
2018-05-17T13:01:01.664Z,22.89
2018-05-17T13:03:29.096Z,22.68
2018-05-17T13:05:56.719Z,22.53
2018-05-17T13:08:24.252Z,22.51
2018-05-17T13:10:51.736Z,22.52
2018-05-17T13:13:19.465Z,22.53
2018-05-17T13:15:47.308Z,22.52
2018-05-17T13:18:14.721Z,22.63
2018-05-17T13:20:42.175Z,22.79
2018-05-17T13:23:09.651Z,23.17
2018-05-17T13:25:37.056Z,23.39
2018-05-17T13:28:04.498Z,23.71
2018-05-17T13:30:32.193Z,23.86
2018-05-17T13:32:59.670Z,23.88
2018-05-17T13:35:27.079Z,24.02
2018-05-17T13:37:54.515Z,23.86
2018-05-17T13:40:22.032Z,23.85
2018-05-17T13:42:49.432Z,23.99
2018-05-17T13:45:17.049Z,24.13
2018-05-17T13:47:44.505Z,24.23
2018-05-17T13:50:11.968Z,24.34
2018-05-17T13:52:39.448Z,24.45
2018-05-17T13:55:06.992Z,24.29
2018-05-17T13:57:34.590Z,24.16
2018-05-17T14:00:02.160Z,24.23
2018-05-17T14:02:29.794Z,24.24
2018-05-17T14:04:57.196Z,24.30
2018-05-17T14:07:24.643Z,24.22
2018-05-17T14:09:52.187Z,24.01
2018-05-17T14:12:19.638Z,23.95
2018-05-17T14:14:47.226Z,23.93
2018-05-17T14:17:14.640Z,23.96
2018-05-17T14:19:42.078Z,23.95
2018-05-17T14:22:09.585Z,23.95
2018-05-17T14:24:37.046Z,24.00
2018-05-17T14:27:04.487Z,23.85
2018-05-17T14:29:34.809Z,23.77
2018-05-17T14:32:02.430Z,23.78
2018-05-17T14:34:29.839Z,23.83
2018-05-17T14:36:57.283Z,23.80
2018-05-17T14:39:24.700Z,23.78
2018-05-17T14:41:52.176Z,23.70
2018-05-17T14:44:19.658Z,23.69
2018-05-17T14:46:47.127Z,23.69
2018-05-17T14:49:15.904Z,23.60
2018-05-17T14:51:43.329Z,23.57
2018-05-17T14:54:11.080Z,23.33
2018-05-17T14:56:38.520Z,23.55
2018-05-17T14:59:07.166Z,23.64
2018-05-17T15:01:34.626Z,23.63
2018-05-17T15:04:02.856Z,23.67
2018-05-17T15:06:31.180Z,23.63
2018-05-17T15:08:58.661Z,23.53
2018-05-17T15:11:26.164Z,23.39
2018-05-17T15:13:53.601Z,23.31
2018-05-17T15:16:21.005Z,23.20
2018-05-17T15:18:48.448Z,23.19
2018-05-17T15:21:15.987Z,23.20
2018-05-17T15:23:44.086Z,23.21
2018-05-17T15:26:11.539Z,23.16
2018-05-17T15:28:39.024Z,23.24
2018-05-17T15:31:07.146Z,23.38
2018-05-17T15:33:34.580Z,23.31
2018-05-17T15:36:02.215Z,23.19
2018-05-17T15:38:29.644Z,23.16
2018-05-17T15:40:57.058Z,23.15
2018-05-17T15:43:24.522Z,23.10
2018-05-17T15:45:51.983Z,22.94
2018-05-17T15:48:19.636Z,22.89
2018-05-17T15:50:48.079Z,22.75
2018-05-17T15:53:15.616Z,22.56
2018-05-17T15:55:43.134Z,22.59
2018-05-17T15:58:10.688Z,22.67
2018-05-17T16:00:39.005Z,22.65
2018-05-17T16:03:07.013Z,22.60
2018-05-17T16:05:34.418Z,22.73
2018-05-17T16:08:01.870Z,22.73
2018-05-17T16:10:29.896Z,22.75
2018-05-17T16:12:57.364Z,22.66
2018-05-17T16:15:24.865Z,22.55
2018-05-17T16:17:52.244Z,22.61
2018-05-17T16:20:19.729Z,22.70
2018-05-17T16:22:48.754Z,22.62
2018-05-17T16:25:17.417Z,22.58
2018-05-17T16:27:44.479Z,22.57
2018-05-17T16:30:11.915Z,22.35
2018-05-17T16:32:39.541Z,22.23
2018-05-17T16:35:06.997Z,22.10
2018-05-17T16:37:34.468Z,22.00
2018-05-17T16:40:01.915Z,21.96
2018-05-17T16:42:29.470Z,22.06
2018-05-17T16:44:57.974Z,22.00
2018-05-17T16:47:25.435Z,21.94
2018-05-17T16:49:52.986Z,21.91
2018-05-17T16:52:20.483Z,21.85
2018-05-17T16:54:48.703Z,21.70
2018-05-17T16:57:16.231Z,21.67
2018-05-17T16:59:43.642Z,21.69
2018-05-17T17:02:11.108Z,21.67
2018-05-17T17:04:39.687Z,21.63
2018-05-17T17:07:07.146Z,21.62
2018-05-17T17:09:34.603Z,21.42
2018-05-17T17:12:02.049Z,21.46
2018-05-17T17:14:29.131Z,21.47
2018-05-17T17:16:57.172Z,21.49
2018-05-17T17:19:24.657Z,21.42
2018-05-17T17:21:52.119Z,21.33
2018-05-17T17:24:20.793Z,21.17
2018-05-17T17:26:52.044Z,20.89
2018-05-17T17:29:19.492Z,20.73
2018-05-17T17:31:46.975Z,20.43
2018-05-17T17:34:14.506Z,20.48
2018-05-17T17:36:41.867Z,20.66
2018-05-17T17:39:09.297Z,20.57
2018-05-17T17:41:36.773Z,20.44
2018-05-17T17:44:04.206Z,20.27
2018-05-17T17:46:32.479Z,20.33
2018-05-17T17:48:59.999Z,20.21
2018-05-17T17:51:27.490Z,20.05
2018-05-17T17:53:54.994Z,19.93
2018-05-17T17:56:22.462Z,19.94
2018-05-17T17:58:50.544Z,19.91
2018-05-17T18:01:18.007Z,19.90
2018-05-17T18:03:45.526Z,19.86
2018-05-17T18:06:13.054Z,19.78
2018-05-17T18:08:40.410Z,19.70
2018-05-17T18:11:07.837Z,19.62
2018-05-17T18:13:35.291Z,19.41
2018-05-17T18:16:03.298Z,19.10
2018-05-17T18:18:30.801Z,18.94
2018-05-17T18:20:59.617Z,18.93
2018-05-17T18:23:28.047Z,18.92
2018-05-17T18:25:55.607Z,18.88
2018-05-17T18:28:23.037Z,18.87
2018-05-17T18:30:50.492Z,18.75
2018-05-17T18:33:17.917Z,18.74
2018-05-17T18:35:45.351Z,18.66
2018-05-17T18:38:12.813Z,18.42
2018-05-17T18:40:40.236Z,18.30
2018-05-17T18:43:07.696Z,18.08
2018-05-17T18:45:35.135Z,17.98
2018-05-17T18:48:03.350Z,17.88
2018-05-17T18:50:30.764Z,17.81
2018-05-17T18:52:58.167Z,17.74
2018-05-17T18:55:25.572Z,17.76
2018-05-17T18:57:53.015Z,17.68
2018-05-17T19:00:20.507Z,17.67
2018-05-17T19:02:48.189Z,17.62
2018-05-17T19:05:15.566Z,17.63
2018-05-17T19:07:43.041Z,17.67
2018-05-17T19:10:10.489Z,17.57
2018-05-17T19:12:38.827Z,17.51
2018-05-17T19:15:06.318Z,17.49
2018-05-17T19:17:33.772Z,17.48
2018-05-17T19:20:01.221Z,17.51
2018-05-17T19:22:28.654Z,17.47
2018-05-17T19:24:56.144Z,17.45
2018-05-17T19:27:23.562Z,17.44
2018-05-17T19:29:51.059Z,17.38
2018-05-17T19:32:18.530Z,17.33
2018-05-17T19:34:46.000Z,17.25
2018-05-17T19:37:13.560Z,17.22
2018-05-17T19:39:41.130Z,17.18
2018-05-17T19:42:08.568Z,17.14
2018-05-17T19:44:36.971Z,17.15
2018-05-17T19:47:04.454Z,17.18
2018-05-17T19:49:32.055Z,17.17
2018-05-17T19:51:59.601Z,17.08
2018-05-17T19:54:27.047Z,16.99
2018-05-17T19:56:56.639Z,16.94
2018-05-17T19:59:24.172Z,16.95
2018-05-17T20:01:51.539Z,16.97
2018-05-17T20:04:18.945Z,17.02
2018-05-17T20:06:46.399Z,16.96
2018-05-17T20:09:13.891Z,16.96
2018-05-17T20:11:41.306Z,16.93
2018-05-17T20:14:08.791Z,16.86
2018-05-17T20:16:36.304Z,16.95
2018-05-17T20:19:03.744Z,16.97
2018-05-17T20:21:31.219Z,17.01
2018-05-17T20:23:58.706Z,17.04
2018-05-17T20:26:26.160Z,17.06
2018-05-17T20:28:53.593Z,17.05
2018-05-17T20:31:21.083Z,17.12
2018-05-17T20:33:48.503Z,17.16
2018-05-17T20:36:19.526Z,17.14
2018-05-17T20:38:47.000Z,17.17
2018-05-17T20:41:16.518Z,17.29
2018-05-17T20:43:44.117Z,17.32
2018-05-17T20:46:11.660Z,17.23
2018-05-17T20:48:39.266Z,17.21
2018-05-17T20:51:06.786Z,17.13
2018-05-17T20:53:34.220Z,17.06
2018-05-17T20:56:01.732Z,17.03
2018-05-17T20:58:29.162Z,16.99
2018-05-17T21:00:56.599Z,16.96
2018-05-17T21:03:27.435Z,16.94
2018-05-17T21:05:54.927Z,16.96
2018-05-17T21:08:22.363Z,17.01
2018-05-17T21:10:50.006Z,17.01
2018-05-17T21:13:17.544Z,16.99
2018-05-17T21:15:44.973Z,17.05
2018-05-17T21:18:12.459Z,16.97
2018-05-17T21:20:39.935Z,16.94
2018-05-17T21:23:07.391Z,16.84
2018-05-17T21:25:34.848Z,16.77
2018-05-17T21:28:02.296Z,16.74
2018-05-17T21:30:29.760Z,16.77
2018-05-17T21:32:57.214Z,16.80
2018-05-17T21:35:24.670Z,16.83
2018-05-17T21:37:52.144Z,16.78
2018-05-17T21:40:19.607Z,16.76
2018-05-17T21:42:47.031Z,16.79
2018-05-17T21:45:14.422Z,16.73
2018-05-17T21:47:41.864Z,16.77
2018-05-17T21:50:09.335Z,16.75
2018-05-17T21:52:36.785Z,16.73
2018-05-17T21:55:04.382Z,16.73
2018-05-17T21:57:31.843Z,16.67
2018-05-17T21:59:59.947Z,16.63
2018-05-17T22:02:27.414Z,16.59
2018-05-17T22:04:55.607Z,16.50
2018-05-17T22:07:23.028Z,16.46
2018-05-17T22:09:50.560Z,16.34
2018-05-17T22:12:18.037Z,16.12
2018-05-17T22:14:45.710Z,15.97
2018-05-17T22:17:13.147Z,15.90
2018-05-17T22:19:40.903Z,15.94
2018-05-17T22:22:08.336Z,16.03
2018-05-17T22:24:35.816Z,16.04
2018-05-17T22:27:03.267Z,16.11
2018-05-17T22:29:30.708Z,16.06
2018-05-17T22:31:58.138Z,16.10
2018-05-17T22:34:25.705Z,16.10
2018-05-17T22:36:53.161Z,16.18
2018-05-17T22:39:20.576Z,16.22
2018-05-17T22:41:48.625Z,16.09
2018-05-17T22:44:16.097Z,16.03
2018-05-17T22:46:43.561Z,16.06
2018-05-17T22:49:11.058Z,16.08
2018-05-17T22:51:38.689Z,16.11
2018-05-17T22:54:06.090Z,16.10
2018-05-17T22:56:45.346Z,16.14
2018-05-17T22:59:12.959Z,16.15
2018-05-17T23:01:40.570Z,16.15
2018-05-17T23:04:07.987Z,16.17
2018-05-17T23:06:35.450Z,16.13
2018-05-17T23:09:02.955Z,16.11
2018-05-17T23:11:30.447Z,16.04
2018-05-17T23:13:57.997Z,16.02
2018-05-17T23:16:25.436Z,15.95
2018-05-17T23:18:52.885Z,15.86
2018-05-17T23:21:20.386Z,15.81
2018-05-17T23:23:47.821Z,15.77
2018-05-17T23:26:15.325Z,15.79
2018-05-17T23:28:43.598Z,15.82
2018-05-17T23:31:11.076Z,15.90
2018-05-17T23:33:38.596Z,15.86
2018-05-17T23:36:06.601Z,15.87
2018-05-17T23:38:34.515Z,15.86
2018-05-17T23:41:13.795Z,15.88
2018-05-17T23:43:41.272Z,15.79
2018-05-17T23:46:08.753Z,15.79
2018-05-17T23:48:36.208Z,15.83
2018-05-17T23:51:03.715Z,15.78
2018-05-17T23:53:32.052Z,15.70
2018-05-17T23:55:59.496Z,15.65
2018-05-17T23:58:26.935Z,15.64
